createdAt,value
2022-11-02T00:00:06.053Z,14.65
2022-11-02T00:07:12.408Z,14.85
2022-11-02T00:09:40.080Z,14.79
2022-11-02T00:12:07.815Z,14.63
2022-11-02T00:14:35.481Z,14.49
2022-11-02T00:17:03.227Z,14.48
2022-11-02T00:19:32.980Z,14.33
2022-11-02T00:22:02.311Z,14.31
2022-11-02T00:24:32.639Z,13.97
2022-11-02T00:27:00.570Z,13.24
2022-11-02T00:29:33.477Z,13.27
2022-11-02T00:32:01.968Z,13.74
2022-11-02T00:34:29.417Z,14.07
2022-11-02T00:36:56.876Z,14.18
2022-11-02T00:39:24.376Z,14.36
2022-11-02T00:41:54.345Z,14.09
2022-11-02T00:44:22.132Z,14.31
2022-11-02T00:46:49.691Z,14.41
2022-11-02T00:49:18.552Z,14.11
2022-11-02T00:51:46.533Z,14.07
2022-11-02T00:54:15.796Z,14.06
2022-11-02T00:56:43.357Z,13.73
2022-11-02T00:59:10.978Z,13.76
2022-11-02T01:01:38.737Z,13.98
2022-11-02T01:04:06.401Z,13.96
2022-11-02T01:06:33.990Z,13.75
2022-11-02T01:09:01.398Z,13.70
2022-11-02T01:11:28.919Z,13.73
2022-11-02T01:13:56.428Z,13.73
2022-11-02T01:16:23.940Z,13.50
2022-11-02T01:18:53.574Z,13.43
2022-11-02T01:21:22.155Z,13.22
2022-11-02T01:23:50.160Z,13.36
2022-11-02T01:26:18.456Z,13.60
2022-11-02T01:28:45.961Z,13.76
2022-11-02T01:31:14.157Z,13.94
2022-11-02T01:33:45.801Z,13.86
2022-11-02T01:36:15.069Z,13.86
2022-11-02T01:38:42.651Z,13.75
2022-11-02T01:41:12.447Z,13.85
2022-11-02T01:43:49.264Z,13.82
2022-11-02T01:46:32.046Z,13.58
2022-11-02T01:49:07.565Z,13.44
2022-11-02T01:51:44.252Z,13.60
2022-11-02T01:54:16.174Z,13.55
2022-11-02T01:56:48.577Z,13.55
2022-11-02T01:59:21.985Z,13.32
2022-11-02T02:01:49.924Z,13.23
2022-11-02T02:04:17.722Z,13.29
2022-11-02T02:06:45.308Z,13.33
2022-11-02T02:09:14.913Z,13.46
2022-11-02T02:11:42.718Z,13.47
2022-11-02T02:14:20.899Z,13.50
2022-11-02T02:17:14.035Z,13.32
2022-11-02T02:20:02.822Z,13.57
2022-11-02T02:22:52.194Z,13.74
2022-11-02T02:25:50.473Z,13.38
2022-11-02T02:28:43.559Z,13.11
2022-11-02T02:31:33.290Z,13.25
2022-11-02T02:34:15.225Z,13.20
2022-11-02T02:36:54.451Z,13.41
2022-11-02T02:39:33.850Z,13.33
2022-11-02T02:42:24.518Z,13.35
2022-11-02T02:45:23.074Z,13.32
2022-11-02T02:48:06.428Z,13.13
2022-11-02T02:50:40.712Z,12.53
2022-11-02T02:53:09.806Z,12.33
2022-11-02T02:55:44.766Z,12.25
2022-11-02T02:58:18.723Z,12.40
2022-11-02T03:00:46.708Z,12.38
2022-11-02T03:03:20.254Z,12.49
2022-11-02T03:06:14.391Z,12.71
2022-11-02T03:08:52.808Z,12.80
2022-11-02T03:11:22.078Z,12.66
2022-11-02T03:13:49.893Z,12.32
2022-11-02T03:16:27.510Z,12.69
2022-11-02T03:19:20.132Z,12.82
2022-11-02T03:22:00.181Z,12.86
2022-11-02T03:25:03.356Z,12.48
2022-11-02T03:27:37.594Z,12.33
2022-11-02T03:30:15.939Z,12.29
2022-11-02T03:33:16.846Z,12.62
2022-11-02T03:36:15.371Z,12.55
2022-11-02T03:38:56.085Z,12.43
2022-11-02T03:41:27.140Z,11.76
2022-11-02T03:44:08.914Z,11.90
2022-11-02T03:46:40.397Z,11.83
2022-11-02T03:49:13.476Z,11.79
2022-11-02T03:51:45.267Z,11.91
2022-11-02T03:54:26.018Z,12.10
2022-11-02T03:56:58.353Z,12.10
2022-11-02T03:59:30.381Z,11.89
2022-11-02T04:01:59.906Z,11.81
2022-11-02T04:04:28.797Z,11.48
2022-11-02T04:06:56.951Z,11.38
2022-11-02T04:09:24.534Z,11.68
2022-11-02T04:12:10.679Z,11.82
2022-11-02T04:14:38.379Z,11.82
2022-11-02T04:19:59.745Z,12.01
2022-11-02T04:22:46.527Z,11.57
2022-11-02T04:25:19.490Z,12.11
2022-11-02T04:27:54.648Z,12.21
2022-11-02T04:30:27.702Z,11.89
2022-11-02T04:33:15.051Z,12.21
2022-11-02T04:35:51.826Z,12.30
2022-11-02T04:38:39.099Z,12.41
2022-11-02T04:41:27.735Z,12.15
2022-11-02T04:43:55.720Z,12.15
2022-11-02T04:46:25.448Z,12.19
2022-11-02T04:48:53.369Z,12.01
2022-11-02T04:51:22.090Z,12.15
2022-11-02T04:53:53.085Z,12.44
2022-11-02T04:56:21.865Z,12.29
2022-11-02T04:58:51.458Z,12.06
2022-11-02T05:01:22.824Z,12.03
2022-11-02T05:03:51.878Z,12.01
2022-11-02T05:06:21.293Z,11.53
2022-11-02T05:08:50.137Z,11.58
2022-11-02T05:11:18.837Z,11.90
2022-11-02T05:13:50.648Z,12.19
2022-11-02T05:16:19.636Z,12.30
2022-11-02T05:18:49.398Z,12.31
2022-11-02T05:21:18.624Z,12.23
2022-11-02T05:23:46.473Z,12.01
2022-11-02T05:26:14.781Z,12.03
2022-11-02T05:28:46.643Z,12.23
2022-11-02T05:31:14.389Z,11.85
2022-11-02T05:33:41.939Z,12.06
2022-11-02T05:36:14.315Z,12.24
2022-11-02T05:38:45.366Z,12.32
2022-11-02T05:41:13.849Z,12.30
2022-11-02T05:44:07.153Z,12.46
2022-11-02T06:00:36.756Z,12.34
2022-11-02T06:03:04.608Z,12.32
2022-11-02T06:05:32.430Z,12.32
2022-11-02T06:08:01.809Z,11.36
2022-11-02T06:13:56.085Z,11.49
2022-11-02T06:16:23.465Z,11.55
2022-11-02T06:19:16.937Z,11.74
2022-11-02T06:22:16.342Z,11.90
2022-11-02T06:24:50.519Z,11.96
2022-11-02T06:27:20.556Z,12.09
2022-11-02T06:29:51.471Z,12.03
2022-11-02T06:54:36.827Z,13.41
2022-11-02T06:57:13.237Z,13.37
2022-11-02T06:59:43.050Z,13.74
2022-11-02T07:02:10.870Z,13.96
2022-11-02T07:04:42.271Z,13.92
2022-11-02T07:07:21.401Z,14.07
2022-11-02T07:09:51.782Z,13.33
2022-11-02T07:13:00.993Z,13.80
2022-11-02T07:18:11.462Z,14.05
2022-11-02T07:20:19.443Z,14.15
2022-11-02T07:23:35.800Z,14.13
2022-11-02T07:26:05.134Z,14.52
2022-11-02T07:28:32.746Z,14.41
2022-11-02T07:31:00.531Z,14.53
2022-11-02T07:33:27.977Z,14.21
2022-11-02T07:35:55.407Z,14.46
2022-11-02T07:38:22.965Z,15.01
2022-11-02T07:40:53.207Z,13.46
2022-11-02T07:43:20.786Z,14.55
2022-11-02T07:45:56.248Z,15.22
2022-11-02T07:48:23.736Z,15.97
2022-11-02T07:50:51.314Z,17.02
2022-11-02T07:53:18.826Z,18.03
2022-11-02T07:55:46.502Z,18.98
2022-11-02T07:58:14.241Z,19.05
2022-11-02T08:00:42.587Z,20.01
2022-11-02T08:03:12.070Z,19.49
2022-11-02T08:05:43.397Z,19.29
2022-11-02T08:08:14.338Z,19.12
2022-11-02T08:10:43.094Z,20.33
2022-11-02T08:13:14.780Z,21.05
2022-11-02T08:15:42.488Z,20.46
2022-11-02T08:18:24.041Z,20.39
2022-11-02T08:20:52.457Z,20.55
2022-11-02T08:23:21.090Z,21.20
2022-11-02T08:25:50.661Z,22.72
2022-11-02T08:28:23.635Z,22.46
2022-11-02T08:30:51.358Z,22.20
2022-11-02T08:33:20.409Z,21.82
2022-11-02T08:35:50.498Z,22.03
2022-11-02T08:38:18.556Z,22.28
2022-11-02T08:40:46.494Z,22.65
2022-11-02T08:43:15.457Z,21.97
2022-11-02T08:46:14.251Z,22.93
2022-11-02T08:48:33.393Z,23.18
2022-11-02T08:51:01.022Z,23.09
2022-11-02T08:53:28.738Z,23.12
2022-11-02T08:55:59.389Z,22.58
2022-11-02T08:58:26.830Z,21.38
2022-11-02T09:00:54.649Z,21.54
2022-11-02T09:03:27.340Z,22.09
2022-11-02T09:06:00.136Z,21.71
2022-11-02T09:08:29.044Z,21.90
2022-11-02T09:11:02.142Z,23.26
2022-11-02T09:13:29.843Z,23.05
2022-11-02T09:15:58.994Z,21.39
2022-11-02T09:18:26.680Z,21.59
2022-11-02T09:20:54.175Z,21.25
2022-11-02T09:23:22.198Z,21.07
2022-11-02T09:25:50.319Z,20.33
2022-11-02T09:28:17.751Z,20.87
2022-11-02T09:30:45.595Z,20.33
2022-11-02T09:33:13.582Z,19.56
2022-11-02T09:35:45.162Z,19.19
2022-11-02T09:38:13.249Z,20.00
2022-11-02T09:40:44.974Z,19.32
2022-11-02T09:43:21.314Z,19.25
2022-11-02T09:46:06.624Z,18.89
2022-11-02T09:48:40.768Z,18.74
2022-11-02T09:51:13.533Z,19.24
2022-11-02T09:53:46.604Z,18.77
2022-11-02T09:56:17.545Z,18.59
2022-11-02T09:58:47.531Z,18.06
2022-11-02T10:01:26.801Z,17.92
2022-11-02T10:04:22.815Z,17.87
2022-11-02T10:07:06.708Z,17.54
2022-11-02T10:09:41.786Z,17.54
2022-11-02T10:12:16.845Z,17.43
2022-11-02T10:15:14.246Z,17.65
2022-11-02T10:17:43.631Z,18.14
2022-11-02T10:20:19.598Z,18.05
2022-11-02T10:22:47.764Z,18.59
2022-11-02T10:25:17.003Z,18.34
2022-11-02T10:27:48.780Z,18.57
2022-11-02T10:30:19.500Z,18.82
2022-11-02T10:32:55.112Z,18.93
2022-11-02T10:39:08.915Z,18.37
2022-11-02T10:41:52.465Z,18.34
2022-11-02T10:44:40.942Z,17.73
2022-11-02T10:47:34.412Z,18.11
2022-11-02T10:50:29.783Z,18.84
2022-11-02T10:53:20.358Z,19.10
2022-11-02T10:56:06.841Z,19.28
2022-11-02T10:58:38.794Z,18.67
2022-11-02T11:01:08.401Z,18.81
2022-11-02T11:03:52.543Z,18.02
2022-11-02T11:06:20.614Z,18.51
2022-11-02T11:08:53.616Z,18.76
2022-11-02T11:11:22.205Z,18.63
2022-11-02T11:19:54.434Z,17.95
2022-11-02T11:22:33.398Z,18.18
2022-11-02T11:25:12.855Z,19.10
2022-11-02T11:27:54.817Z,18.93
2022-11-02T11:30:58.247Z,18.96
2022-11-02T11:33:21.425Z,18.88
2022-11-02T11:35:51.122Z,19.06
2022-11-02T11:38:22.651Z,19.00
2022-11-02T11:40:54.322Z,19.34
2022-11-02T11:43:35.132Z,18.83
2022-11-02T11:46:08.393Z,18.68
2022-11-02T11:49:15.074Z,18.67
2022-11-02T11:51:50.927Z,18.77
2022-11-02T11:54:34.035Z,18.78
2022-11-02T11:57:28.173Z,18.42
2022-11-02T11:59:59.922Z,18.01
2022-11-02T12:02:42.714Z,18.60
2022-11-02T12:05:17.560Z,18.71
2022-11-02T12:08:12.912Z,19.01
2022-11-02T12:10:49.280Z,19.10
2022-11-02T12:13:16.583Z,18.97
2022-11-02T12:16:29.025Z,18.67
2022-11-02T12:21:26.874Z,19.02
2022-11-02T12:23:57.112Z,19.24
2022-11-02T12:26:45.703Z,18.26
2022-11-02T12:29:26.236Z,18.49
2022-11-02T12:32:09.038Z,18.33
2022-11-02T12:35:15.654Z,18.54
2022-11-02T12:37:50.748Z,18.15
2022-11-02T12:43:20.630Z,18.23
2022-11-02T12:46:07.735Z,18.25
2022-11-02T12:48:45.863Z,18.40
2022-11-02T12:51:43.789Z,18.21
2022-11-02T12:54:14.536Z,18.48
2022-11-02T12:56:50.172Z,18.29
2022-11-02T12:59:28.497Z,18.60
2022-11-02T13:02:18.942Z,18.17
2022-11-02T13:05:03.831Z,17.82
2022-11-02T13:07:39.110Z,18.08
2022-11-02T13:10:26.872Z,18.29
2022-11-02T13:12:59.049Z,18.23
2022-11-02T13:15:29.483Z,18.20
2022-11-02T13:18:02.737Z,18.20
2022-11-02T13:20:41.391Z,18.36
2022-11-02T13:23:36.688Z,18.58
2022-11-02T13:26:11.277Z,18.19
2022-11-02T13:28:50.525Z,18.13
2022-11-02T13:31:33.525Z,18.34
2022-11-02T13:34:06.709Z,18.30
2022-11-02T13:36:38.289Z,17.93
2022-11-02T13:39:17.538Z,18.22
2022-11-02T13:42:25.791Z,18.25
2022-11-02T13:45:02.162Z,18.07
2022-11-02T13:47:53.458Z,18.01
2022-11-02T13:50:24.175Z,17.91
2022-11-02T13:53:09.004Z,18.20
2022-11-02T13:55:46.924Z,18.20
2022-11-02T13:58:37.573Z,17.79
2022-11-02T14:01:08.131Z,17.57
2022-11-02T14:03:47.567Z,17.30
2022-11-02T14:06:17.985Z,17.20
2022-11-02T14:08:56.766Z,17.40
2022-11-02T14:11:36.556Z,17.29
2022-11-02T14:14:04.870Z,17.24
2022-11-02T14:16:50.531Z,17.40
2022-11-02T14:19:19.503Z,17.36
2022-11-02T14:21:50.728Z,17.13
2022-11-02T14:24:39.873Z,16.98
2022-11-02T14:27:10.432Z,16.56
2022-11-02T14:29:46.885Z,16.84
2022-11-02T14:32:17.198Z,17.05
2022-11-02T14:35:21.342Z,17.08
2022-11-02T14:38:07.492Z,17.15
2022-11-02T14:41:07.474Z,17.46
2022-11-02T14:44:16.640Z,17.45
2022-11-02T14:47:01.455Z,17.19
2022-11-02T14:49:36.920Z,17.42
2022-11-02T14:52:16.178Z,17.65
2022-11-02T14:55:21.684Z,17.03
2022-11-02T14:58:18.652Z,17.03
2022-11-02T15:00:49.127Z,17.33
2022-11-02T15:03:25.557Z,17.68
2022-11-02T15:06:15.560Z,17.73
2022-11-02T15:09:00.347Z,17.39
2022-11-02T15:11:48.558Z,16.87
2022-11-02T15:14:39.025Z,17.02
2022-11-02T15:17:15.828Z,17.07
2022-11-02T15:19:49.809Z,17.12
2022-11-02T15:22:32.499Z,17.37
2022-11-02T15:25:09.358Z,17.49
2022-11-02T15:27:40.612Z,17.24
2022-11-02T15:30:14.947Z,17.40
2022-11-02T15:33:05.910Z,17.28
2022-11-02T15:35:36.973Z,17.36
2022-11-02T15:38:29.557Z,17.46
2022-11-02T15:41:19.385Z,17.37
2022-11-02T15:44:11.513Z,16.77
2022-11-02T15:47:13.731Z,16.82
2022-11-02T15:49:44.149Z,16.86
2022-11-02T15:52:35.545Z,17.07
2022-11-02T15:55:20.680Z,16.24
2022-11-02T15:58:01.352Z,16.36
2022-11-02T16:00:31.913Z,16.57
2022-11-02T16:03:07.339Z,16.67
2022-11-02T16:05:42.890Z,16.89
2022-11-02T16:08:32.655Z,16.63
2022-11-02T16:11:05.233Z,16.43
2022-11-02T16:13:48.795Z,16.28
2022-11-02T16:16:23.156Z,16.69
2022-11-02T16:18:52.822Z,17.09
2022-11-02T16:21:21.569Z,17.10
2022-11-02T16:23:59.937Z,16.93
2022-11-02T16:26:29.811Z,16.81
2022-11-02T16:28:59.572Z,16.78
2022-11-02T16:31:32.093Z,16.64
2022-11-02T16:34:02.797Z,16.57
2022-11-02T16:36:32.480Z,16.60
2022-11-02T16:39:27.221Z,16.52
2022-11-02T16:41:58.238Z,16.46
2022-11-02T16:44:32.497Z,16.50
2022-11-02T16:47:06.643Z,16.53
2022-11-02T16:49:50.115Z,16.35
2022-11-02T16:52:21.606Z,16.38
2022-11-02T16:54:49.142Z,16.20
2022-11-02T16:57:23.764Z,16.29
2022-11-02T17:00:01.465Z,16.35
2022-11-02T17:02:28.973Z,16.35
2022-11-02T17:05:05.859Z,16.49
2022-11-02T17:07:39.213Z,16.51
2022-11-02T17:10:08.831Z,16.63
2022-11-02T17:12:43.590Z,16.54
2022-11-02T17:15:17.117Z,16.30
2022-11-02T17:17:45.194Z,16.34
2022-11-02T17:20:15.331Z,16.42
2022-11-02T17:22:56.991Z,16.49
2022-11-02T17:25:24.525Z,16.47
2022-11-02T17:27:53.893Z,16.55
2022-11-02T17:30:30.540Z,16.72
2022-11-02T17:32:58.811Z,16.82
2022-11-02T17:35:27.733Z,16.56
2022-11-02T17:37:55.419Z,16.08
2022-11-02T17:40:26.002Z,16.07
2022-11-02T17:42:59.805Z,16.19
2022-11-02T17:45:33.611Z,16.38
2022-11-02T17:48:02.371Z,15.82
2022-11-02T17:50:33.073Z,15.66
2022-11-02T17:53:02.467Z,15.63
2022-11-02T17:55:32.396Z,15.52
2022-11-02T17:58:00.765Z,15.77
2022-11-02T18:00:29.025Z,15.89
2022-11-02T18:03:00.400Z,16.31
2022-11-02T18:05:35.504Z,15.86
2022-11-02T18:08:05.412Z,16.07
2022-11-02T18:10:44.130Z,15.91
2022-11-02T18:13:18.279Z,15.64
2022-11-02T18:15:46.693Z,15.88
2022-11-02T18:18:17.112Z,16.05
2022-11-02T18:20:44.828Z,15.90
2022-11-02T18:23:19.457Z,15.92
2022-11-02T18:25:56.619Z,15.70
2022-11-02T18:28:47.493Z,15.53
2022-11-02T18:31:15.201Z,15.51
2022-11-02T18:33:43.594Z,15.61
2022-11-02T18:36:11.584Z,15.67
2022-11-02T18:38:39.340Z,15.46
2022-11-02T18:41:27.254Z,15.70
2022-11-02T18:44:03.512Z,15.75
2022-11-02T18:46:33.973Z,15.74
2022-11-02T18:49:01.888Z,15.38
2022-11-02T18:51:29.574Z,15.19
2022-11-02T18:53:59.995Z,15.30
2022-11-02T18:57:48.014Z,15.39
2022-11-02T19:00:16.035Z,15.51
2022-11-02T19:02:43.723Z,15.50
2022-11-02T19:05:34.068Z,15.72
2022-11-02T19:08:20.574Z,15.73
2022-11-02T19:10:48.486Z,15.77
2022-11-02T19:13:16.343Z,15.85
2022-11-02T19:15:46.299Z,15.98
2022-11-02T19:18:13.936Z,15.77
2022-11-02T19:20:41.446Z,15.60
2022-11-02T19:23:10.171Z,15.56
2022-11-02T19:25:37.990Z,15.49
2022-11-02T19:28:05.849Z,15.18
2022-11-02T19:30:33.589Z,15.28
2022-11-02T19:33:01.220Z,15.53
2022-11-02T19:35:28.795Z,15.64
2022-11-02T19:37:58.248Z,15.51
2022-11-02T19:40:25.856Z,15.34
2022-11-02T19:42:53.519Z,15.40
2022-11-02T19:45:21.336Z,15.32
2022-11-02T19:47:50.244Z,15.57
2022-11-02T19:50:17.907Z,15.71
2022-11-02T19:52:46.503Z,15.95
2022-11-02T19:55:14.097Z,16.00
2022-11-02T19:57:41.747Z,15.59
2022-11-02T20:00:09.915Z,15.72
2022-11-02T20:02:37.594Z,15.68
2022-11-02T20:05:05.546Z,15.60
2022-11-02T20:07:33.123Z,15.67
2022-11-02T20:10:01.023Z,15.58
2022-11-02T20:12:28.626Z,15.92
2022-11-02T20:14:56.158Z,15.85
2022-11-02T20:17:41.958Z,15.85
2022-11-02T20:20:11.816Z,15.98
2022-11-02T20:22:39.607Z,16.09
2022-11-02T20:25:07.727Z,16.20
2022-11-02T20:27:39.312Z,16.18
2022-11-02T20:30:08.769Z,15.98
2022-11-02T20:32:37.380Z,15.89
2022-11-02T20:35:09.673Z,15.97
2022-11-02T20:37:40.656Z,15.98
2022-11-02T20:40:10.587Z,15.82
2022-11-02T20:42:39.500Z,15.77
2022-11-02T20:45:08.474Z,15.96
2022-11-02T20:47:37.013Z,16.12
2022-11-02T20:50:08.093Z,16.36
2022-11-02T20:52:46.595Z,16.26
2022-11-02T20:55:15.538Z,16.10
2022-11-02T20:57:46.932Z,16.26
2022-11-02T21:00:16.502Z,16.25
2022-11-02T21:02:48.942Z,16.37
2022-11-02T21:05:17.870Z,16.49
2022-11-02T21:07:46.800Z,16.50
2022-11-02T21:10:15.490Z,16.31
2022-11-02T21:13:01.767Z,16.15
2022-11-02T21:15:31.199Z,16.28
2022-11-02T21:18:00.326Z,16.27
2022-11-02T21:20:34.250Z,16.45
2022-11-02T21:23:05.242Z,16.41
2022-11-02T21:25:34.302Z,16.47
2022-11-02T21:28:02.244Z,16.36
2022-11-02T21:30:33.771Z,16.15
2022-11-02T21:33:01.448Z,15.88
2022-11-02T21:35:29.209Z,16.19
2022-11-02T21:37:58.548Z,16.30
2022-11-02T21:40:28.063Z,16.00
2022-11-02T21:42:55.658Z,16.35
2022-11-02T21:45:26.195Z,16.24
2022-11-02T21:47:58.779Z,16.09
2022-11-02T21:50:26.395Z,16.24
2022-11-02T21:52:54.074Z,15.90
2022-11-02T21:55:21.809Z,15.77
2022-11-02T21:57:49.581Z,15.96
2022-11-02T22:00:17.431Z,15.90
2022-11-02T22:02:45.166Z,16.13
2022-11-02T22:05:32.867Z,16.16
2022-11-02T22:08:20.793Z,16.40
2022-11-02T22:10:48.437Z,16.58
2022-11-02T22:13:34.525Z,16.55
2022-11-02T22:16:12.216Z,16.48
2022-11-02T22:18:39.982Z,16.51
2022-11-02T22:21:08.074Z,16.34
2022-11-02T22:23:36.129Z,16.21
2022-11-02T22:26:08.002Z,16.28
2022-11-02T22:28:40.701Z,16.38
2022-11-02T22:31:14.584Z,16.34
2022-11-02T22:33:43.874Z,16.14
2022-11-02T22:36:14.643Z,16.03
2022-11-02T22:38:53.957Z,16.23
2022-11-02T22:41:34.037Z,16.03
2022-11-02T22:44:05.805Z,15.96
2022-11-02T22:46:36.409Z,15.95
2022-11-02T22:49:05.250Z,16.09
2022-11-02T22:51:37.213Z,16.11
2022-11-02T22:54:07.836Z,16.10
2022-11-02T22:56:35.951Z,15.88
2022-11-02T22:59:04.283Z,16.15
2022-11-02T23:01:35.943Z,16.24
2022-11-02T23:04:05.069Z,16.31
2022-11-02T23:06:33.123Z,16.50
2022-11-02T23:09:01.447Z,16.34
2022-11-02T23:11:32.071Z,15.86
2022-11-02T23:14:00.941Z,15.88
2022-11-02T23:16:32.239Z,16.18
2022-11-02T23:19:43.019Z,16.06
2022-11-02T23:22:30.719Z,16.22
2022-11-02T23:25:12.564Z,16.63
2022-11-02T23:28:01.258Z,16.72
2022-11-02T23:30:50.855Z,16.89
2022-11-02T23:33:19.150Z,16.72
2022-11-02T23:36:04.926Z,16.73
2022-11-02T23:39:19.428Z,16.86
2022-11-02T23:41:46.987Z,16.60
2022-11-02T23:44:14.866Z,16.37
2022-11-02T23:46:44.724Z,15.97
2022-11-02T23:49:13.281Z,15.74
2022-11-02T23:51:59.714Z,15.71
2022-11-02T23:54:46.098Z,16.00
2022-11-02T23:57:13.687Z,16.04
2022-11-02T23:59:41.403Z,15.88
